sensor_id;sensor_type;location;lat;lon;timestamp;temperature;humidity
15239;DHT22;7722;53.274;9.500;2022-07-23T00:02:03;15.20;99.90
15239;DHT22;7722;53.274;9.500;2022-07-23T00:04:32;15.20;99.90
15239;DHT22;7722;53.274;9.500;2022-07-23T00:06:59;15.20;99.90
15239;DHT22;7722;53.274;9.500;2022-07-23T00:09:26;15.20;99.90
15239;DHT22;7722;53.274;9.500;2022-07-23T00:11:56;15.30;99.90
15239;DHT22;7722;53.274;9.500;2022-07-23T00:14:23;15.30;99.90
15239;DHT22;7722;53.274;9.500;2022-07-23T00:16:51;15.30;99.90
15239;DHT22;7722;53.274;9.500;2022-07-23T00:19:18;15.30;99.90
15239;DHT22;7722;53.274;9.500;2022-07-23T00:21:45;15.30;99.90
15239;DHT22;7722;53.274;9.500;2022-07-23T00:24:12;15.30;99.90
15239;DHT22;7722;53.274;9.500;2022-07-23T00:26:39;15.20;99.90
15239;DHT22;7722;53.274;9.500;2022-07-23T00:29:06;15.00;99.90
15239;DHT22;7722;53.274;9.500;2022-07-23T00:31:33;15.00;99.90
15239;DHT22;7722;53.274;9.500;2022-07-23T00:34:02;14.90;99.90
15239;DHT22;7722;53.274;9.500;2022-07-23T00:36:29;14.80;99.90
15239;DHT22;7722;53.274;9.500;2022-07-23T00:38:57;14.80;99.90
15239;DHT22;7722;53.274;9.500;2022-07-23T00:41:24;14.80;99.90
15239;DHT22;7722;53.274;9.500;2022-07-23T00:43:51;14.70;99.90
15239;DHT22;7722;53.274;9.500;2022-07-23T00:46:19;14.60;99.90
15239;DHT22;7722;53.274;9.500;2022-07-23T00:48:46;14.60;99.90
15239;DHT22;7722;53.274;9.500;2022-07-23T00:51:16;14.60;99.90
15239;DHT22;7722;53.274;9.500;2022-07-23T00:53:43;14.50;99.90
15239;DHT22;7722;53.274;9.500;2022-07-23T00:56:11;14.40;99.90
15239;DHT22;7722;53.274;9.500;2022-07-23T00:58:39;14.30;99.90
15239;DHT22;7722;53.274;9.500;2022-07-23T01:01:09;14.30;99.90
15239;DHT22;7722;53.274;9.500;2022-07-23T01:03:36;14.30;99.90
15239;DHT22;7722;53.274;9.500;2022-07-23T01:06:03;14.20;99.90
15239;DHT22;7722;53.274;9.500;2022-07-23T01:08:31;14.20;99.90
15239;DHT22;7722;53.274;9.500;2022-07-23T01:10:58;14.30;99.90
15239;DHT22;7722;53.274;9.500;2022-07-23T01:13:25;14.20;99.90
15239;DHT22;7722;53.274;9.500;2022-07-23T01:15:52;14.30;99.90
15239;DHT22;7722;53.274;9.500;2022-07-23T01:18:19;14.20;99.90
15239;DHT22;7722;53.274;9.500;2022-07-23T01:20:46;14.30;99.90
15239;DHT22;7722;53.274;9.500;2022-07-23T01:23:15;14.30;99.90
15239;DHT22;7722;53.274;9.500;2022-07-23T01:25:48;14.40;99.90
15239;DHT22;7722;53.274;9.500;2022-07-23T01:28:15;14.40;99.90
15239;DHT22;7722;53.274;9.500;2022-07-23T01:30:42;14.40;99.90
15239;DHT22;7722;53.274;9.500;2022-07-23T01:33:09;14.30;99.90
15239;DHT22;7722;53.274;9.500;2022-07-23T01:35:36;14.30;99.90
15239;DHT22;7722;53.274;9.500;2022-07-23T01:38:03;14.20;99.90
15239;DHT22;7722;53.274;9.500;2022-07-23T01:40:31;14.20;99.90
15239;DHT22;7722;53.274;9.500;2022-07-23T01:42:58;14.10;99.90
15239;DHT22;7722;53.274;9.500;2022-07-23T01:45:25;14.10;99.90
15239;DHT22;7722;53.274;9.500;2022-07-23T01:47:53;14.10;99.90
15239;DHT22;7722;53.274;9.500;2022-07-23T01:50:20;14.10;99.90
15239;DHT22;7722;53.274;9.500;2022-07-23T01:52:47;14.00;99.90
15239;DHT22;7722;53.274;9.500;2022-07-23T01:55:14;14.00;99.90
15239;DHT22;7722;53.274;9.500;2022-07-23T01:57:42;13.90;99.90
15239;DHT22;7722;53.274;9.500;2022-07-23T02:00:10;13.80;99.90
15239;DHT22;7722;53.274;9.500;2022-07-23T02:02:37;13.70;99.90
15239;DHT22;7722;53.274;9.500;2022-07-23T02:05:05;13.60;99.90
15239;DHT22;7722;53.274;9.500;2022-07-23T02:07:32;13.60;99.90
15239;DHT22;7722;53.274;9.500;2022-07-23T02:09:59;13.60;99.90
15239;DHT22;7722;53.274;9.500;2022-07-23T02:12:26;13.50;99.90
15239;DHT22;7722;53.274;9.500;2022-07-23T02:14:54;13.40;99.90
15239;DHT22;7722;53.274;9.500;2022-07-23T02:17:21;13.40;99.90
15239;DHT22;7722;53.274;9.500;2022-07-23T02:19:48;13.30;99.90
15239;DHT22;7722;53.274;9.500;2022-07-23T02:22:15;13.30;99.90
15239;DHT22;7722;53.274;9.500;2022-07-23T02:24:42;13.20;99.90
15239;DHT22;7722;53.274;9.500;2022-07-23T02:27:09;13.10;99.90
15239;DHT22;7722;53.274;9.500;2022-07-23T02:29:36;13.10;99.90
15239;DHT22;7722;53.274;9.500;2022-07-23T02:32:05;13.00;99.90
15239;DHT22;7722;53.274;9.500;2022-07-23T02:34:32;13.00;99.90
15239;DHT22;7722;53.274;9.500;2022-07-23T02:36:59;13.00;99.90
15239;DHT22;7722;53.274;9.500;2022-07-23T02:39:26;12.90;99.90
15239;DHT22;7722;53.274;9.500;2022-07-23T02:41:53;12.90;99.90
15239;DHT22;7722;53.274;9.500;2022-07-23T02:44:20;12.80;99.90
15239;DHT22;7722;53.274;9.500;2022-07-23T02:46:48;12.80;99.90
15239;DHT22;7722;53.274;9.500;2022-07-23T02:49:16;12.80;99.90
15239;DHT22;7722;53.274;9.500;2022-07-23T02:51:43;12.80;99.90
15239;DHT22;7722;53.274;9.500;2022-07-23T02:54:10;12.70;99.90
15239;DHT22;7722;53.274;9.500;2022-07-23T02:56:37;12.80;99.90
15239;DHT22;7722;53.274;9.500;2022-07-23T02:59:04;12.80;99.90
15239;DHT22;7722;53.274;9.500;2022-07-23T03:01:31;12.80;99.90
15239;DHT22;7722;53.274;9.500;2022-07-23T03:03:58;12.80;99.90
15239;DHT22;7722;53.274;9.500;2022-07-23T03:06:27;12.80;99.90
15239;DHT22;7722;53.274;9.500;2022-07-23T03:08:54;12.80;99.90
15239;DHT22;7722;53.274;9.500;2022-07-23T03:11:21;12.90;99.90
15239;DHT22;7722;53.274;9.500;2022-07-23T03:13:48;12.90;99.90
15239;DHT22;7722;53.274;9.500;2022-07-23T03:16:15;12.90;99.90
15239;DHT22;7722;53.274;9.500;2022-07-23T03:18:42;12.90;99.90
15239;DHT22;7722;53.274;9.500;2022-07-23T03:21:09;12.80;99.90
15239;DHT22;7722;53.274;9.500;2022-07-23T03:23:37;12.90;99.90
15239;DHT22;7722;53.274;9.500;2022-07-23T03:26:05;12.90;99.90
15239;DHT22;7722;53.274;9.500;2022-07-23T03:28:32;12.90;99.90
15239;DHT22;7722;53.274;9.500;2022-07-23T03:30:59;13.00;99.90
15239;DHT22;7722;53.274;9.500;2022-07-23T03:33:26;13.00;99.90
15239;DHT22;7722;53.274;9.500;2022-07-23T03:35:53;13.00;99.90
15239;DHT22;7722;53.274;9.500;2022-07-23T03:38:20;13.00;99.90
15239;DHT22;7722;53.274;9.500;2022-07-23T03:40:48;13.00;99.90
15239;DHT22;7722;53.274;9.500;2022-07-23T03:43:15;13.00;99.90
15239;DHT22;7722;53.274;9.500;2022-07-23T03:45:43;13.10;99.90
15239;DHT22;7722;53.274;9.500;2022-07-23T03:48:09;13.10;99.90
15239;DHT22;7722;53.274;9.500;2022-07-23T03:50:36;13.00;99.90
15239;DHT22;7722;53.274;9.500;2022-07-23T03:53:04;13.10;99.90
15239;DHT22;7722;53.274;9.500;2022-07-23T03:55:31;13.10;99.90
15239;DHT22;7722;53.274;9.500;2022-07-23T03:57:59;13.10;99.90
15239;DHT22;7722;53.274;9.500;2022-07-23T04:00:26;13.10;99.90
15239;DHT22;7722;53.274;9.500;2022-07-23T04:02:53;13.20;99.90
15239;DHT22;7722;53.274;9.500;2022-07-23T04:05:20;13.20;99.90
15239;DHT22;7722;53.274;9.500;2022-07-23T04:07:47;13.20;99.90
15239;DHT22;7722;53.274;9.500;2022-07-23T04:10:14;13.30;99.90
15239;DHT22;7722;53.274;9.500;2022-07-23T04:12:41;13.20;99.90
15239;DHT22;7722;53.274;9.500;2022-07-23T04:15:10;13.30;99.90
15239;DHT22;7722;53.274;9.500;2022-07-23T04:17:37;13.30;99.90
15239;DHT22;7722;53.274;9.500;2022-07-23T04:20:05;13.30;99.90
15239;DHT22;7722;53.274;9.500;2022-07-23T04:22:32;13.40;99.90
15239;DHT22;7722;53.274;9.500;2022-07-23T04:24:59;13.40;99.90
15239;DHT22;7722;53.274;9.500;2022-07-23T04:27:26;13.30;99.90
15239;DHT22;7722;53.274;9.500;2022-07-23T04:29:53;13.30;99.90
15239;DHT22;7722;53.274;9.500;2022-07-23T04:32:21;13.30;99.90
15239;DHT22;7722;53.274;9.500;2022-07-23T04:34:49;13.30;99.90
15239;DHT22;7722;53.274;9.500;2022-07-23T04:37:16;13.40;99.90
15239;DHT22;7722;53.274;9.500;2022-07-23T04:39:43;13.40;99.90
15239;DHT22;7722;53.274;9.500;2022-07-23T04:42:10;13.40;99.90
15239;DHT22;7722;53.274;9.500;2022-07-23T04:44:37;13.40;99.90
15239;DHT22;7722;53.274;9.500;2022-07-23T04:47:04;13.50;99.90
15239;DHT22;7722;53.274;9.500;2022-07-23T04:49:32;13.40;99.90
15239;DHT22;7722;53.274;9.500;2022-07-23T04:52:00;13.50;99.90
15239;DHT22;7722;53.274;9.500;2022-07-23T04:54:26;13.50;99.90
15239;DHT22;7722;53.274;9.500;2022-07-23T04:56:53;13.50;99.90
15239;DHT22;7722;53.274;9.500;2022-07-23T04:59:20;13.50;99.90
15239;DHT22;7722;53.274;9.500;2022-07-23T05:01:47;13.60;99.90
15239;DHT22;7722;53.274;9.500;2022-07-23T05:04:14;13.70;99.90
15239;DHT22;7722;53.274;9.500;2022-07-23T05:06:43;13.70;99.90
15239;DHT22;7722;53.274;9.500;2022-07-23T05:09:10;13.70;99.90
15239;DHT22;7722;53.274;9.500;2022-07-23T05:11:37;13.80;99.90
15239;DHT22;7722;53.274;9.500;2022-07-23T05:14:04;13.90;99.90
15239;DHT22;7722;53.274;9.500;2022-07-23T05:16:32;14.00;99.90
15239;DHT22;7722;53.274;9.500;2022-07-23T05:18:59;13.90;99.90
15239;DHT22;7722;53.274;9.500;2022-07-23T05:21:26;14.00;99.90
15239;DHT22;7722;53.274;9.500;2022-07-23T05:23:54;14.00;99.90
15239;DHT22;7722;53.274;9.500;2022-07-23T05:26:21;14.00;99.90
15239;DHT22;7722;53.274;9.500;2022-07-23T05:28:48;14.00;99.90
15239;DHT22;7722;53.274;9.500;2022-07-23T05:31:15;14.10;99.90
15239;DHT22;7722;53.274;9.500;2022-07-23T05:33:42;14.20;99.90
15239;DHT22;7722;53.274;9.500;2022-07-23T05:36:10;14.30;99.90
15239;DHT22;7722;53.274;9.500;2022-07-23T05:38:37;14.50;99.90
15239;DHT22;7722;53.274;9.500;2022-07-23T05:41:05;14.60;99.90
15239;DHT22;7722;53.274;9.500;2022-07-23T05:43:32;14.70;99.90
15239;DHT22;7722;53.274;9.500;2022-07-23T05:45:59;14.90;99.90
15239;DHT22;7722;53.274;9.500;2022-07-23T05:48:26;15.00;99.90
15239;DHT22;7722;53.274;9.500;2022-07-23T05:50:53;15.20;99.90
15239;DHT22;7722;53.274;9.500;2022-07-23T05:53:20;15.30;99.90
15239;DHT22;7722;53.274;9.500;2022-07-23T05:55:47;15.50;99.90
15239;DHT22;7722;53.274;9.500;2022-07-23T05:58:16;15.70;99.90
15239;DHT22;7722;53.274;9.500;2022-07-23T06:00:43;15.90;99.90
15239;DHT22;7722;53.274;9.500;2022-07-23T06:03:10;15.90;99.90
15239;DHT22;7722;53.274;9.500;2022-07-23T06:05:37;16.20;99.90
15239;DHT22;7722;53.274;9.500;2022-07-23T06:08:04;16.30;99.90
15239;DHT22;7722;53.274;9.500;2022-07-23T06:10:31;16.50;99.90
15239;DHT22;7722;53.274;9.500;2022-07-23T06:12:58;16.40;99.90
15239;DHT22;7722;53.274;9.500;2022-07-23T06:15:26;16.20;99.90
15239;DHT22;7722;53.274;9.500;2022-07-23T06:17:53;16.20;99.90
15239;DHT22;7722;53.274;9.500;2022-07-23T06:20:21;16.10;99.90
15239;DHT22;7722;53.274;9.500;2022-07-23T06:22:49;15.90;99.90
15239;DHT22;7722;53.274;9.500;2022-07-23T06:25:16;16.00;99.90
15239;DHT22;7722;53.274;9.500;2022-07-23T06:27:43;16.20;99.90
15239;DHT22;7722;53.274;9.500;2022-07-23T06:30:12;16.20;99.90
15239;DHT22;7722;53.274;9.500;2022-07-23T06:32:40;16.50;99.90
15239;DHT22;7722;53.274;9.500;2022-07-23T06:35:08;16.70;99.90
15239;DHT22;7722;53.274;9.500;2022-07-23T06:37:35;16.70;99.90
15239;DHT22;7722;53.274;9.500;2022-07-23T06:40:02;16.50;99.90
15239;DHT22;7722;53.274;9.500;2022-07-23T06:42:29;16.40;99.90
15239;DHT22;7722;53.274;9.500;2022-07-23T06:44:56;16.40;99.90
15239;DHT22;7722;53.274;9.500;2022-07-23T06:47:23;16.60;99.90
15239;DHT22;7722;53.274;9.500;2022-07-23T06:49:52;16.80;99.90
15239;DHT22;7722;53.274;9.500;2022-07-23T06:52:19;17.00;99.90
15239;DHT22;7722;53.274;9.500;2022-07-23T06:54:46;17.00;99.90
15239;DHT22;7722;53.274;9.500;2022-07-23T06:57:13;17.20;99.90
15239;DHT22;7722;53.274;9.500;2022-07-23T06:59:40;17.30;99.90
15239;DHT22;7722;53.274;9.500;2022-07-23T07:02:07;17.50;99.90
15239;DHT22;7722;53.274;9.500;2022-07-23T07:04:34;17.60;99.90
15239;DHT22;7722;53.274;9.500;2022-07-23T07:07:02;17.60;99.90
15239;DHT22;7722;53.274;9.500;2022-07-23T07:09:30;17.70;99.90
15239;DHT22;7722;53.274;9.500;2022-07-23T07:11:57;17.70;99.90
15239;DHT22;7722;53.274;9.500;2022-07-23T07:14:24;17.90;99.90
15239;DHT22;7722;53.274;9.500;2022-07-23T07:16:51;18.40;99.90
15239;DHT22;7722;53.274;9.500;2022-07-23T07:19:18;18.40;99.90
15239;DHT22;7722;53.274;9.500;2022-07-23T07:21:45;17.60;99.90
15239;DHT22;7722;53.274;9.500;2022-07-23T07:24:13;17.60;99.90
15239;DHT22;7722;53.274;9.500;2022-07-23T07:26:40;17.30;99.90
15239;DHT22;7722;53.274;9.500;2022-07-23T07:29:07;17.50;99.90
15239;DHT22;7722;53.274;9.500;2022-07-23T07:31:34;17.50;99.90
15239;DHT22;7722;53.274;9.500;2022-07-23T07:34:01;17.70;99.90
15239;DHT22;7722;53.274;9.500;2022-07-23T07:36:29;18.00;99.90
15239;DHT22;7722;53.274;9.500;2022-07-23T07:38:55;17.90;99.90
15239;DHT22;7722;53.274;9.500;2022-07-23T07:41:24;18.00;99.90
15239;DHT22;7722;53.274;9.500;2022-07-23T07:43:53;18.00;99.90
15239;DHT22;7722;53.274;9.500;2022-07-23T07:46:24;18.10;99.90
15239;DHT22;7722;53.274;9.500;2022-07-23T07:48:58;18.30;99.90
15239;DHT22;7722;53.274;9.500;2022-07-23T07:51:27;18.40;99.90
15239;DHT22;7722;53.274;9.500;2022-07-23T07:53:55;18.40;99.90
15239;DHT22;7722;53.274;9.500;2022-07-23T07:56:24;18.60;99.90
15239;DHT22;7722;53.274;9.500;2022-07-23T07:58:55;18.30;99.90
15239;DHT22;7722;53.274;9.500;2022-07-23T08:01:22;18.10;99.90
15239;DHT22;7722;53.274;9.500;2022-07-23T08:03:49;18.30;99.90
15239;DHT22;7722;53.274;9.500;2022-07-23T08:06:16;18.60;99.90
15239;DHT22;7722;53.274;9.500;2022-07-23T08:08:43;18.80;99.90
15239;DHT22;7722;53.274;9.500;2022-07-23T08:11:10;18.70;99.90
15239;DHT22;7722;53.274;9.500;2022-07-23T08:13:38;18.70;99.90
15239;DHT22;7722;53.274;9.500;2022-07-23T08:16:07;19.20;99.90
15239;DHT22;7722;53.274;9.500;2022-07-23T08:18:34;19.80;99.90
15239;DHT22;7722;53.274;9.500;2022-07-23T08:21:01;20.10;99.90
15239;DHT22;7722;53.274;9.500;2022-07-23T08:23:30;19.60;99.90
15239;DHT22;7722;53.274;9.500;2022-07-23T08:25:57;19.20;99.90
15239;DHT22;7722;53.274;9.500;2022-07-23T08:28:25;19.00;99.90
15239;DHT22;7722;53.274;9.500;2022-07-23T08:30:54;19.00;99.90
15239;DHT22;7722;53.274;9.500;2022-07-23T08:33:21;18.90;99.90
15239;DHT22;7722;53.274;9.500;2022-07-23T08:35:49;18.80;99.90
15239;DHT22;7722;53.274;9.500;2022-07-23T08:38:19;18.60;99.90
15239;DHT22;7722;53.274;9.500;2022-07-23T08:40:48;18.30;99.90
15239;DHT22;7722;53.274;9.500;2022-07-23T08:43:19;18.60;99.90
15239;DHT22;7722;53.274;9.500;2022-07-23T08:45:48;18.50;99.90
15239;DHT22;7722;53.274;9.500;2022-07-23T08:48:18;18.30;99.90
15239;DHT22;7722;53.274;9.500;2022-07-23T08:50:47;18.00;99.90
15239;DHT22;7722;53.274;9.500;2022-07-23T08:53:15;18.10;99.90
15239;DHT22;7722;53.274;9.500;2022-07-23T08:55:44;18.10;99.90
15239;DHT22;7722;53.274;9.500;2022-07-23T08:58:12;18.10;99.90
15239;DHT22;7722;53.274;9.500;2022-07-23T09:00:39;18.10;99.90
15239;DHT22;7722;53.274;9.500;2022-07-23T09:03:06;18.40;99.90
15239;DHT22;7722;53.274;9.500;2022-07-23T09:05:35;18.60;99.90
15239;DHT22;7722;53.274;9.500;2022-07-23T09:08:20;18.70;99.90
15239;DHT22;7722;53.274;9.500;2022-07-23T09:10:50;18.90;99.90
15239;DHT22;7722;53.274;9.500;2022-07-23T09:13:32;18.70;99.90
15239;DHT22;7722;53.274;9.500;2022-07-23T09:16:01;19.10;99.90
15239;DHT22;7722;53.274;9.500;2022-07-23T09:18:35;19.70;99.90
15239;DHT22;7722;53.274;9.500;2022-07-23T09:21:20;20.40;99.90
15239;DHT22;7722;53.274;9.500;2022-07-23T09:23:52;20.50;99.90
15239;DHT22;7722;53.274;9.500;2022-07-23T09:26:29;20.70;99.90
15239;DHT22;7722;53.274;9.500;2022-07-23T09:29:02;21.70;99.90
15239;DHT22;7722;53.274;9.500;2022-07-23T09:31:42;21.70;97.70
15239;DHT22;7722;53.274;9.500;2022-07-23T09:34:12;21.30;97.60
15239;DHT22;7722;53.274;9.500;2022-07-23T09:36:41;21.00;98.70
15239;DHT22;7722;53.274;9.500;2022-07-23T09:39:09;20.60;98.60
15239;DHT22;7722;53.274;9.500;2022-07-23T09:41:39;20.00;98.90
15239;DHT22;7722;53.274;9.500;2022-07-23T09:44:08;19.70;99.10
15239;DHT22;7722;53.274;9.500;2022-07-23T09:46:36;19.70;99.90
15239;DHT22;7722;53.274;9.500;2022-07-23T09:49:11;19.90;99.90
15239;DHT22;7722;53.274;9.500;2022-07-23T09:51:49;20.00;99.90
15239;DHT22;7722;53.274;9.500;2022-07-23T09:54:29;20.10;99.80
15239;DHT22;7722;53.274;9.500;2022-07-23T09:56:58;20.00;99.90
15239;DHT22;7722;53.274;9.500;2022-07-23T09:59:34;19.60;99.90
15239;DHT22;7722;53.274;9.500;2022-07-23T10:02:02;19.10;99.90
15239;DHT22;7722;53.274;9.500;2022-07-23T10:04:31;19.20;99.90
15239;DHT22;7722;53.274;9.500;2022-07-23T10:07:02;19.30;99.90
15239;DHT22;7722;53.274;9.500;2022-07-23T10:09:31;19.60;99.90
15239;DHT22;7722;53.274;9.500;2022-07-23T10:12:01;19.50;99.90
15239;DHT22;7722;53.274;9.500;2022-07-23T10:14:33;19.20;99.90
15239;DHT22;7722;53.274;9.500;2022-07-23T10:17:02;19.10;99.90
15239;DHT22;7722;53.274;9.500;2022-07-23T10:19:29;18.60;99.90
15239;DHT22;7722;53.274;9.500;2022-07-23T10:22:00;18.10;99.90
15239;DHT22;7722;53.274;9.500;2022-07-23T10:24:52;18.10;99.90
15239;DHT22;7722;53.274;9.500;2022-07-23T10:27:53;18.20;99.90
15239;DHT22;7722;53.274;9.500;2022-07-23T10:30:30;18.30;99.90
15239;DHT22;7722;53.274;9.500;2022-07-23T10:33:09;18.80;99.90
15239;DHT22;7722;53.274;9.500;2022-07-23T10:35:43;19.00;99.90
15239;DHT22;7722;53.274;9.500;2022-07-23T10:38:20;19.20;99.90
15239;DHT22;7722;53.274;9.500;2022-07-23T10:40:56;19.70;99.90
15239;DHT22;7722;53.274;9.500;2022-07-23T10:43:23;20.30;99.90
15239;DHT22;7722;53.274;9.500;2022-07-23T10:45:51;19.90;99.90
15239;DHT22;7722;53.274;9.500;2022-07-23T10:48:19;19.80;99.90
15239;DHT22;7722;53.274;9.500;2022-07-23T10:51:07;19.40;99.80
15239;DHT22;7722;53.274;9.500;2022-07-23T10:53:56;18.80;99.90
15239;DHT22;7722;53.274;9.500;2022-07-23T10:57:04;18.40;99.90
15239;DHT22;7722;53.274;9.500;2022-07-23T11:00:21;18.40;99.90
15239;DHT22;7722;53.274;9.500;2022-07-23T11:02:50;18.70;99.90
15239;DHT22;7722;53.274;9.500;2022-07-23T11:05:18;18.60;99.90
15239;DHT22;7722;53.274;9.500;2022-07-23T11:08:14;18.60;99.90
15239;DHT22;7722;53.274;9.500;2022-07-23T11:10:46;18.60;99.90
15239;DHT22;7722;53.274;9.500;2022-07-23T11:13:26;18.60;99.90
15239;DHT22;7722;53.274;9.500;2022-07-23T11:16:16;19.00;99.90
15239;DHT22;7722;53.274;9.500;2022-07-23T11:19:07;19.30;99.90
15239;DHT22;7722;53.274;9.500;2022-07-23T11:21:45;19.90;99.90
15239;DHT22;7722;53.274;9.500;2022-07-23T11:24:14;20.20;99.90
15239;DHT22;7722;53.274;9.500;2022-07-23T11:26:46;20.20;99.70
15239;DHT22;7722;53.274;9.500;2022-07-23T11:29:41;20.10;99.90
15239;DHT22;7722;53.274;9.500;2022-07-23T11:32:27;20.20;99.90
15239;DHT22;7722;53.274;9.500;2022-07-23T11:34:55;20.20;99.90
15239;DHT22;7722;53.274;9.500;2022-07-23T11:37:34;20.30;99.90
15239;DHT22;7722;53.274;9.500;2022-07-23T11:40:04;20.50;99.90
15239;DHT22;7722;53.274;9.500;2022-07-23T11:42:36;20.30;99.20
15239;DHT22;7722;53.274;9.500;2022-07-23T11:45:05;20.40;99.40
15239;DHT22;7722;53.274;9.500;2022-07-23T11:47:33;20.50;99.80
15239;DHT22;7722;53.274;9.500;2022-07-23T11:50:05;20.60;99.60
15239;DHT22;7722;53.274;9.500;2022-07-23T11:52:32;21.10;99.00
15239;DHT22;7722;53.274;9.500;2022-07-23T11:55:02;21.90;98.40
15239;DHT22;7722;53.274;9.500;2022-07-23T11:57:33;22.10;96.80
15239;DHT22;7722;53.274;9.500;2022-07-23T12:00:05;20.90;96.80
15239;DHT22;7722;53.274;9.500;2022-07-23T12:02:34;20.40;98.10
15239;DHT22;7722;53.274;9.500;2022-07-23T12:05:02;20.50;98.40
15239;DHT22;7722;53.274;9.500;2022-07-23T12:07:34;20.10;98.90
15239;DHT22;7722;53.274;9.500;2022-07-23T12:10:05;20.10;98.40
15239;DHT22;7722;53.274;9.500;2022-07-23T12:12:37;19.80;98.50
15239;DHT22;7722;53.274;9.500;2022-07-23T12:15:07;20.30;99.00
15239;DHT22;7722;53.274;9.500;2022-07-23T12:17:36;20.50;98.30
15239;DHT22;7722;53.274;9.500;2022-07-23T12:20:06;20.60;97.60
15239;DHT22;7722;53.274;9.500;2022-07-23T12:22:36;21.00;98.10
15239;DHT22;7722;53.274;9.500;2022-07-23T12:25:06;21.00;97.90
15239;DHT22;7722;53.274;9.500;2022-07-23T12:27:33;20.70;97.20
15239;DHT22;7722;53.274;9.500;2022-07-23T12:32:56;20.80;97.50
15239;DHT22;7722;53.274;9.500;2022-07-23T12:35:31;21.30;97.40
15239;DHT22;7722;53.274;9.500;2022-07-23T12:38:01;21.40;96.30
15239;DHT22;7722;53.274;9.500;2022-07-23T12:40:31;21.20;96.80
15239;DHT22;7722;53.274;9.500;2022-07-23T12:43:00;21.30;96.40
15239;DHT22;7722;53.274;9.500;2022-07-23T12:45:42;20.70;96.30
15239;DHT22;7722;53.274;9.500;2022-07-23T12:48:16;20.30;97.20
15239;DHT22;7722;53.274;9.500;2022-07-23T12:50:49;20.70;97.50
15239;DHT22;7722;53.274;9.500;2022-07-23T12:53:18;21.00;98.70
15239;DHT22;7722;53.274;9.500;2022-07-23T12:55:47;21.10;98.50
15239;DHT22;7722;53.274;9.500;2022-07-23T12:58:16;21.20;97.60
15239;DHT22;7722;53.274;9.500;2022-07-23T13:01:01;21.40;97.00
15239;DHT22;7722;53.274;9.500;2022-07-23T13:03:36;21.80;97.60
15239;DHT22;7722;53.274;9.500;2022-07-23T13:06:06;21.40;97.20
15239;DHT22;7722;53.274;9.500;2022-07-23T13:08:34;20.70;97.00
15239;DHT22;7722;53.274;9.500;2022-07-23T13:11:03;21.00;97.40
15239;DHT22;7722;53.274;9.500;2022-07-23T13:13:32;21.30;97.40
15239;DHT22;7722;53.274;9.500;2022-07-23T13:16:00;21.60;96.20
15239;DHT22;7722;53.274;9.500;2022-07-23T13:18:28;21.40;95.60
15239;DHT22;7722;53.274;9.500;2022-07-23T13:20:57;21.10;96.70
15239;DHT22;7722;53.274;9.500;2022-07-23T13:23:24;21.40;96.70
15239;DHT22;7722;53.274;9.500;2022-07-23T13:25:52;21.20;96.10
15239;DHT22;7722;53.274;9.500;2022-07-23T13:28:20;21.60;96.40
15239;DHT22;7722;53.274;9.500;2022-07-23T13:30:50;21.40;96.10
15239;DHT22;7722;53.274;9.500;2022-07-23T13:33:18;21.40;96.10
15239;DHT22;7722;53.274;9.500;2022-07-23T13:35:45;21.40;95.60
15239;DHT22;7722;53.274;9.500;2022-07-23T13:38:14;21.60;95.80
15239;DHT22;7722;53.274;9.500;2022-07-23T13:40:43;21.90;95.40
15239;DHT22;7722;53.274;9.500;2022-07-23T13:43:11;22.40;94.20
15239;DHT22;7722;53.274;9.500;2022-07-23T13:45:39;22.30;94.10
15239;DHT22;7722;53.274;9.500;2022-07-23T13:48:09;22.30;94.50
15239;DHT22;7722;53.274;9.500;2022-07-23T13:50:36;21.30;95.30
15239;DHT22;7722;53.274;9.500;2022-07-23T13:53:05;21.10;95.40
15239;DHT22;7722;53.274;9.500;2022-07-23T13:55:34;20.70;95.60
15239;DHT22;7722;53.274;9.500;2022-07-23T13:58:01;20.90;95.90
15239;DHT22;7722;53.274;9.500;2022-07-23T14:00:29;21.20;95.70
15239;DHT22;7722;53.274;9.500;2022-07-23T14:02:57;22.00;95.50
15239;DHT22;7722;53.274;9.500;2022-07-23T14:05:24;22.90;93.40
15239;DHT22;7722;53.274;9.500;2022-07-23T14:07:52;23.10;92.50
15239;DHT22;7722;53.274;9.500;2022-07-23T14:10:20;23.50;91.80
15239;DHT22;7722;53.274;9.500;2022-07-23T14:12:50;23.00;92.10
15239;DHT22;7722;53.274;9.500;2022-07-23T14:15:18;23.30;92.60
15239;DHT22;7722;53.274;9.500;2022-07-23T14:17:45;22.70;92.80
15239;DHT22;7722;53.274;9.500;2022-07-23T14:20:13;22.40;92.80
15239;DHT22;7722;53.274;9.500;2022-07-23T14:22:41;22.00;92.60
15239;DHT22;7722;53.274;9.500;2022-07-23T14:25:09;22.20;93.10
15239;DHT22;7722;53.274;9.500;2022-07-23T14:27:37;22.60;92.80
15239;DHT22;7722;53.274;9.500;2022-07-23T14:30:07;22.80;93.10
15239;DHT22;7722;53.274;9.500;2022-07-23T14:32:34;23.10;92.30
15239;DHT22;7722;53.274;9.500;2022-07-23T14:35:03;23.00;91.90
15239;DHT22;7722;53.274;9.500;2022-07-23T14:37:30;23.10;92.00
15239;DHT22;7722;53.274;9.500;2022-07-23T14:39:57;22.80;91.50
15239;DHT22;7722;53.274;9.500;2022-07-23T14:42:25;22.70;91.80
15239;DHT22;7722;53.274;9.500;2022-07-23T14:44:52;23.00;91.20
15239;DHT22;7722;53.274;9.500;2022-07-23T14:47:20;22.40;91.70
15239;DHT22;7722;53.274;9.500;2022-07-23T14:49:47;22.30;92.70
15239;DHT22;7722;53.274;9.500;2022-07-23T14:52:15;22.00;92.60
15239;DHT22;7722;53.274;9.500;2022-07-23T14:54:42;22.00;92.70
15239;DHT22;7722;53.274;9.500;2022-07-23T14:57:09;22.80;92.80
15239;DHT22;7722;53.274;9.500;2022-07-23T14:59:36;23.00;91.90
15239;DHT22;7722;53.274;9.500;2022-07-23T15:02:03;23.30;91.20
15239;DHT22;7722;53.274;9.500;2022-07-23T15:04:31;23.00;91.10
15239;DHT22;7722;53.274;9.500;2022-07-23T15:06:58;23.30;91.40
15239;DHT22;7722;53.274;9.500;2022-07-23T15:09:25;23.60;90.00
15239;DHT22;7722;53.274;9.500;2022-07-23T15:11:55;23.80;89.10
15239;DHT22;7722;53.274;9.500;2022-07-23T15:14:25;24.00;89.10
15239;DHT22;7722;53.274;9.500;2022-07-23T15:16:55;23.50;90.10
15239;DHT22;7722;53.274;9.500;2022-07-23T15:19:23;23.20;91.20
15239;DHT22;7722;53.274;9.500;2022-07-23T15:21:52;23.00;91.20
15239;DHT22;7722;53.274;9.500;2022-07-23T15:24:20;22.80;91.00
15239;DHT22;7722;53.274;9.500;2022-07-23T15:26:47;23.10;90.80
15239;DHT22;7722;53.274;9.500;2022-07-23T15:29:14;23.50;90.80
15239;DHT22;7722;53.274;9.500;2022-07-23T15:31:41;23.30;90.90
15239;DHT22;7722;53.274;9.500;2022-07-23T15:34:08;23.20;90.00
15239;DHT22;7722;53.274;9.500;2022-07-23T15:36:35;22.80;90.80
15239;DHT22;7722;53.274;9.500;2022-07-23T15:39:04;22.60;91.70
15239;DHT22;7722;53.274;9.500;2022-07-23T15:41:31;21.90;92.00
15239;DHT22;7722;53.274;9.500;2022-07-23T15:43:59;21.80;92.40
15239;DHT22;7722;53.274;9.500;2022-07-23T15:46:26;21.90;92.70
15239;DHT22;7722;53.274;9.500;2022-07-23T15:48:53;22.00;92.50
15239;DHT22;7722;53.274;9.500;2022-07-23T15:51:20;22.10;92.00
15239;DHT22;7722;53.274;9.500;2022-07-23T15:53:47;22.60;92.20
15239;DHT22;7722;53.274;9.500;2022-07-23T15:56:16;22.90;91.50
15239;DHT22;7722;53.274;9.500;2022-07-23T15:58:43;22.30;91.20
15239;DHT22;7722;53.274;9.500;2022-07-23T16:01:10;23.10;91.10